createdAt,value
2022-10-02T00:00:25.940Z,10.40
2022-10-02T00:01:37.547Z,10.30
2022-10-02T00:02:43.723Z,10.30
2022-10-02T00:03:51.020Z,10.40
2022-10-02T00:04:57.836Z,10.40
2022-10-02T00:06:07.237Z,10.40
2022-10-02T00:07:12.198Z,10.30
2022-10-02T00:08:23.867Z,10.40
2022-10-02T00:09:31.623Z,10.40
2022-10-02T00:10:44.661Z,10.40
2022-10-02T00:11:50.289Z,10.40
2022-10-02T00:12:58.435Z,10.50
2022-10-02T00:14:03.153Z,10.40
2022-10-02T00:15:23.845Z,10.50
2022-10-02T00:16:31.979Z,10.50
2022-10-02T00:17:40.300Z,10.50
2022-10-02T00:18:43.971Z,10.50
2022-10-02T00:19:48.260Z,10.60
2022-10-02T00:20:58.075Z,10.60
2022-10-02T00:22:18.050Z,10.60
2022-10-02T00:23:23.602Z,10.60
2022-10-02T00:24:32.992Z,10.70
2022-10-02T00:25:42.213Z,10.70
2022-10-02T00:26:53.538Z,10.70
2022-10-02T00:28:12.476Z,10.70
2022-10-02T00:29:29.600Z,10.60
2022-10-02T00:30:37.843Z,10.70
2022-10-02T00:31:48.748Z,10.70
2022-10-02T00:33:04.053Z,10.70
2022-10-02T00:34:23.103Z,10.70
2022-10-02T00:35:50.343Z,10.80
2022-10-02T00:37:03.770Z,10.80
2022-10-02T00:38:16.473Z,10.80
2022-10-02T00:39:29.691Z,10.80
2022-10-02T00:40:50.070Z,10.80
2022-10-02T00:42:20.372Z,10.80
2022-10-02T00:43:30.997Z,10.80
2022-10-02T00:44:49.359Z,10.80
2022-10-02T00:46:18.910Z,10.80
2022-10-02T00:47:34.923Z,10.80
2022-10-02T00:48:49.120Z,10.80
2022-10-02T00:50:03.424Z,10.90
2022-10-02T00:51:18.817Z,10.90
2022-10-02T00:52:36.728Z,10.90
2022-10-02T00:53:49.942Z,10.90
2022-10-02T00:55:11.755Z,10.90
2022-10-02T00:56:28.841Z,10.90
2022-10-02T00:57:44.969Z,10.90
2022-10-02T00:59:01.366Z,10.90
2022-10-02T01:00:08.672Z,10.90
2022-10-02T01:01:16.690Z,10.90
2022-10-02T01:02:46.123Z,10.90
2022-10-02T01:03:54.384Z,10.90
2022-10-02T01:04:57.658Z,10.90
2022-10-02T01:06:00.640Z,10.90
2022-10-02T01:07:06.550Z,10.90
2022-10-02T01:08:09.756Z,10.90
2022-10-02T01:09:12.172Z,10.90
2022-10-02T01:10:15.866Z,10.90
2022-10-02T01:11:20.307Z,10.90
2022-10-02T01:12:23.169Z,10.90
2022-10-02T01:13:26.153Z,10.90
2022-10-02T01:14:35.519Z,10.80
2022-10-02T01:15:41.244Z,10.80
2022-10-02T01:16:43.924Z,10.80
2022-10-02T01:17:49.160Z,10.80
2022-10-02T01:18:51.556Z,10.70
2022-10-02T01:19:55.458Z,10.70
2022-10-02T01:21:03.147Z,10.70
2022-10-02T01:22:11.089Z,10.60
2022-10-02T01:23:22.309Z,10.60
2022-10-02T01:24:30.407Z,10.60
2022-10-02T01:25:35.209Z,10.60
2022-10-02T01:26:37.364Z,10.60
2022-10-02T01:27:40.853Z,10.50
2022-10-02T01:28:42.826Z,10.50
2022-10-02T01:29:47.821Z,10.50
2022-10-02T01:30:53.547Z,10.50
2022-10-02T01:31:57.424Z,10.50
2022-10-02T01:33:02.678Z,10.40
2022-10-02T01:34:06.037Z,10.40
2022-10-02T01:35:09.055Z,10.40
2022-10-02T01:36:13.554Z,10.30
2022-10-02T01:37:15.523Z,10.30
2022-10-02T01:38:23.154Z,10.30
2022-10-02T01:39:26.463Z,10.30
2022-10-02T01:40:31.558Z,10.30
2022-10-02T01:41:41.557Z,10.20
2022-10-02T01:42:44.530Z,10.20
2022-10-02T01:43:51.618Z,10.20
2022-10-02T01:44:53.676Z,10.20
2022-10-02T01:46:06.317Z,10.20
2022-10-02T01:47:12.109Z,10.20
2022-10-02T01:48:21.575Z,10.10
2022-10-02T01:49:48.056Z,10.10
2022-10-02T01:51:03.801Z,10.10
2022-10-02T01:52:21.094Z,10.10
2022-10-02T01:53:31.175Z,10.10
2022-10-02T01:54:49.133Z,10.00
2022-10-02T01:55:59.185Z,10.00
2022-10-02T01:57:13.979Z,10.00
2022-10-02T01:58:24.670Z,10.00
2022-10-02T01:59:42.911Z,10.00
2022-10-02T02:00:59.941Z,9.90
2022-10-02T02:02:18.077Z,9.90
2022-10-02T02:03:28.074Z,10.00
2022-10-02T02:04:38.967Z,9.90
2022-10-02T02:05:49.088Z,10.00
2022-10-02T02:06:57.365Z,9.90
2022-10-02T02:08:09.503Z,9.90
2022-10-02T02:09:18.980Z,9.90
2022-10-02T02:10:27.449Z,9.80
2022-10-02T02:11:29.941Z,9.80
2022-10-02T02:12:42.617Z,9.80
2022-10-02T02:13:47.814Z,9.80
2022-10-02T02:14:55.234Z,9.80
2022-10-02T02:16:03.929Z,9.80
2022-10-02T02:17:11.959Z,9.80
2022-10-02T02:18:20.923Z,9.80
2022-10-02T02:19:29.120Z,9.80
2022-10-02T02:20:37.976Z,9.80
2022-10-02T02:21:43.471Z,9.80
2022-10-02T02:22:48.533Z,9.80
2022-10-02T02:23:53.006Z,9.70
2022-10-02T02:24:58.624Z,9.70
2022-10-02T02:26:04.910Z,9.70
2022-10-02T02:27:11.454Z,9.60
2022-10-02T02:28:19.549Z,9.60
2022-10-02T02:29:25.423Z,9.60
2022-10-02T02:30:31.614Z,9.60
2022-10-02T02:31:39.641Z,9.60
2022-10-02T02:32:46.557Z,9.60
2022-10-02T02:33:52.402Z,9.50
2022-10-02T02:35:01.737Z,9.60
2022-10-02T02:36:09.054Z,9.60
2022-10-02T02:37:16.683Z,9.60
2022-10-02T02:38:24.883Z,9.60
2022-10-02T02:39:31.638Z,9.60
2022-10-02T02:40:39.664Z,9.60
2022-10-02T02:41:46.113Z,9.50
2022-10-02T02:42:57.429Z,9.60
2022-10-02T02:44:03.562Z,9.60
2022-10-02T02:45:12.522Z,9.50
2022-10-02T02:46:23.553Z,9.50
2022-10-02T02:47:30.149Z,9.50
2022-10-02T02:48:39.336Z,9.50
2022-10-02T02:49:49.661Z,9.60
2022-10-02T02:50:56.689Z,9.60
2022-10-02T02:52:03.878Z,9.60
2022-10-02T02:53:10.920Z,9.50
2022-10-02T02:54:16.140Z,9.50
2022-10-02T02:55:23.542Z,9.50
2022-10-02T02:56:28.332Z,9.50
2022-10-02T02:57:36.167Z,9.50
2022-10-02T02:58:43.399Z,9.50
2022-10-02T02:59:50.471Z,9.50
2022-10-02T03:00:52.617Z,9.40
2022-10-02T03:01:55.613Z,9.50
2022-10-02T03:02:58.490Z,9.40
2022-10-02T03:04:01.895Z,9.50
2022-10-02T03:05:11.655Z,9.50
2022-10-02T03:06:31.599Z,9.50
2022-10-02T03:07:34.031Z,9.50
2022-10-02T03:08:38.111Z,9.50
2022-10-02T03:09:40.959Z,9.50
2022-10-02T03:10:56.429Z,9.50
2022-10-02T03:12:09.818Z,9.50
2022-10-02T03:13:28.304Z,9.50
2022-10-02T03:14:53.141Z,9.50
2022-10-02T03:16:08.015Z,9.50
2022-10-02T03:17:20.740Z,9.50
2022-10-02T03:18:38.136Z,9.50
2022-10-02T03:19:48.830Z,9.50
2022-10-02T03:21:01.656Z,9.50
2022-10-02T03:22:11.641Z,9.50
2022-10-02T03:23:22.955Z,9.50
2022-10-02T03:24:31.579Z,9.50
2022-10-02T03:25:39.202Z,9.50
2022-10-02T03:26:49.587Z,9.50
2022-10-02T03:27:56.234Z,9.50
2022-10-02T03:29:02.307Z,9.50
2022-10-02T03:30:08.629Z,9.50
2022-10-02T03:31:13.489Z,9.50
2022-10-02T03:32:18.368Z,9.50
2022-10-02T03:33:23.158Z,9.50
2022-10-02T03:34:26.134Z,9.50
2022-10-02T03:35:30.713Z,9.50
2022-10-02T03:36:35.199Z,9.50
2022-10-02T03:37:40.068Z,9.50
2022-10-02T03:38:42.763Z,9.50
2022-10-02T03:39:46.201Z,9.50
2022-10-02T03:40:48.147Z,9.50
2022-10-02T03:41:51.175Z,9.50
2022-10-02T03:42:58.185Z,9.40
2022-10-02T03:44:01.637Z,9.50
2022-10-02T03:45:06.999Z,9.50
2022-10-02T03:46:09.170Z,9.50
2022-10-02T03:47:12.115Z,9.50
2022-10-02T03:48:14.513Z,9.50
2022-10-02T03:49:17.886Z,9.40
2022-10-02T03:50:20.475Z,9.50
2022-10-02T03:51:23.630Z,9.50
2022-10-02T03:52:26.284Z,9.50
2022-10-02T03:53:32.104Z,9.50
2022-10-02T03:54:35.839Z,9.50
2022-10-02T03:55:41.452Z,9.50
2022-10-02T03:56:50.748Z,9.40
2022-10-02T03:57:55.268Z,9.40
2022-10-02T03:59:01.691Z,9.50
2022-10-02T04:00:12.809Z,9.50
2022-10-02T04:01:21.095Z,9.50
2022-10-02T04:02:31.723Z,9.50
2022-10-02T04:03:37.234Z,9.50
2022-10-02T04:04:46.801Z,9.50
2022-10-02T04:05:55.267Z,9.50
2022-10-02T04:07:02.575Z,9.50
2022-10-02T04:08:10.780Z,9.50
2022-10-02T04:09:19.417Z,9.50
2022-10-02T04:10:32.060Z,9.40
2022-10-02T04:11:38.879Z,9.50
2022-10-02T04:12:45.406Z,9.40
2022-10-02T04:13:55.109Z,9.40
2022-10-02T04:15:02.097Z,9.40
2022-10-02T04:16:14.029Z,9.40
2022-10-02T04:17:23.435Z,9.40
2022-10-02T04:18:30.315Z,9.40
2022-10-02T04:19:39.442Z,9.40
2022-10-02T04:20:48.439Z,9.40
2022-10-02T04:21:55.956Z,9.30
2022-10-02T04:23:06.828Z,9.40
2022-10-02T04:24:17.709Z,9.40
2022-10-02T04:25:23.926Z,9.30
2022-10-02T04:26:30.359Z,9.40
2022-10-02T04:27:37.711Z,9.40
2022-10-02T04:28:46.419Z,9.40
2022-10-02T04:29:56.271Z,9.40
2022-10-02T04:30:58.468Z,9.40
2022-10-02T04:32:11.807Z,9.40
2022-10-02T04:33:17.675Z,9.40
2022-10-02T04:34:21.068Z,9.40
2022-10-02T04:35:32.477Z,9.40
2022-10-02T04:36:44.335Z,9.40
2022-10-02T04:38:08.803Z,9.40
2022-10-02T04:39:28.250Z,9.40
2022-10-02T04:40:43.509Z,9.40
2022-10-02T04:42:15.224Z,9.40
2022-10-02T04:43:29.868Z,9.40
2022-10-02T04:44:47.927Z,9.50
2022-10-02T04:46:04.153Z,9.50
2022-10-02T04:47:22.069Z,9.50
2022-10-02T04:48:46.493Z,9.50
2022-10-02T04:50:10.716Z,9.50
2022-10-02T04:51:40.184Z,9.50
2022-10-02T04:52:56.569Z,9.60
2022-10-02T04:54:28.544Z,9.60
2022-10-02T04:55:44.272Z,9.70
2022-10-02T04:57:02.966Z,9.70
2022-10-02T04:58:24.517Z,9.80
2022-10-02T04:59:42.005Z,9.80
2022-10-02T05:00:49.038Z,9.80
2022-10-02T05:02:02.979Z,9.90
2022-10-02T05:03:24.310Z,9.90
2022-10-02T05:04:48.971Z,9.90
2022-10-02T05:06:11.705Z,9.90
2022-10-02T05:07:50.239Z,10.00
2022-10-02T05:09:12.056Z,10.00
2022-10-02T05:10:36.143Z,10.00
2022-10-02T05:11:56.843Z,10.00
2022-10-02T05:13:11.852Z,10.10
2022-10-02T05:14:37.251Z,10.10
2022-10-02T05:15:51.019Z,10.10
2022-10-02T05:17:04.640Z,10.10
2022-10-02T05:18:24.654Z,10.10
2022-10-02T05:19:41.224Z,10.20
2022-10-02T05:21:04.061Z,10.20
2022-10-02T05:22:24.168Z,10.20
2022-10-02T05:23:48.883Z,10.30
2022-10-02T05:25:03.110Z,10.30
2022-10-02T05:26:25.401Z,10.40
2022-10-02T05:27:50.553Z,10.40
2022-10-02T05:29:12.169Z,10.40
2022-10-02T05:30:16.009Z,10.40
2022-10-02T05:31:30.538Z,10.50
2022-10-02T05:32:54.712Z,10.50
2022-10-02T05:34:10.980Z,10.50
2022-10-02T05:35:28.994Z,10.50
2022-10-02T05:36:48.193Z,10.50
2022-10-02T05:38:03.758Z,10.50
2022-10-02T05:39:09.368Z,10.50
2022-10-02T05:40:18.741Z,10.50
2022-10-02T05:41:27.663Z,10.50
2022-10-02T05:42:33.644Z,10.50
2022-10-02T05:43:42.099Z,10.50
2022-10-02T05:44:50.676Z,10.50
2022-10-02T05:45:56.921Z,10.40
2022-10-02T05:47:06.311Z,10.40
2022-10-02T05:48:15.714Z,10.40
2022-10-02T05:49:25.025Z,10.40
2022-10-02T05:50:31.634Z,10.50
2022-10-02T05:51:42.053Z,10.50
2022-10-02T05:52:54.311Z,10.50
2022-10-02T05:54:02.083Z,10.50
2022-10-02T05:55:12.574Z,10.50
2022-10-02T05:56:22.083Z,10.50
2022-10-02T05:57:32.077Z,10.50
2022-10-02T05:58:39.989Z,10.60
2022-10-02T05:59:48.310Z,10.60
2022-10-02T06:00:56.927Z,10.60
2022-10-02T06:02:05.023Z,10.60
2022-10-02T06:03:15.451Z,10.70
2022-10-02T06:04:26.379Z,10.70
2022-10-02T06:05:44.378Z,10.70
2022-10-02T06:06:48.742Z,10.70
2022-10-02T06:07:57.115Z,10.80
2022-10-02T06:09:03.071Z,10.90
2022-10-02T06:10:11.972Z,10.90
2022-10-02T06:11:20.185Z,11.00
2022-10-02T06:12:30.581Z,11.10
2022-10-02T06:13:36.232Z,11.20
2022-10-02T06:14:42.478Z,11.20
2022-10-02T06:15:51.126Z,11.40
2022-10-02T06:17:00.139Z,11.50
2022-10-02T06:18:07.795Z,11.60
2022-10-02T06:19:14.030Z,11.60
2022-10-02T06:20:24.085Z,11.60
2022-10-02T06:21:33.897Z,11.60
2022-10-02T06:22:43.985Z,11.60
2022-10-02T06:23:51.753Z,11.50
2022-10-02T06:24:59.209Z,11.50
2022-10-02T06:26:06.055Z,11.40
2022-10-02T06:27:15.858Z,11.40
2022-10-02T06:28:25.447Z,11.40
2022-10-02T06:29:33.390Z,11.30
2022-10-02T06:30:41.477Z,11.30
2022-10-02T06:31:48.567Z,11.20
2022-10-02T06:32:56.544Z,11.20
2022-10-02T06:33:58.604Z,11.20
2022-10-02T06:35:02.831Z,11.20
2022-10-02T06:36:26.950Z,11.10
2022-10-02T06:37:39.566Z,11.10
2022-10-02T06:39:07.230Z,11.10
2022-10-02T06:40:41.800Z,11.20
2022-10-02T06:41:54.527Z,11.20
2022-10-02T06:43:04.166Z,11.20
2022-10-02T06:44:18.839Z,11.20
2022-10-02T06:45:32.366Z,11.20
2022-10-02T06:46:49.469Z,11.30
2022-10-02T06:48:06.276Z,11.30
2022-10-02T06:49:16.711Z,11.40
2022-10-02T06:50:28.133Z,11.30
2022-10-02T06:51:42.554Z,11.30
2022-10-02T06:52:51.918Z,11.30
2022-10-02T06:54:08.486Z,11.30
2022-10-02T06:55:32.134Z,11.30
2022-10-02T06:56:46.715Z,11.40
2022-10-02T06:58:05.011Z,11.40
2022-10-02T06:59:17.812Z,11.40
2022-10-02T07:00:22.527Z,11.50
2022-10-02T07:01:37.824Z,11.50
2022-10-02T07:02:57.805Z,11.50
2022-10-02T07:04:24.645Z,11.60
2022-10-02T07:05:53.301Z,11.60
2022-10-02T07:07:13.633Z,11.70
2022-10-02T07:08:25.166Z,11.90
2022-10-02T07:09:41.389Z,12.00
2022-10-02T07:10:52.407Z,12.20
2022-10-02T07:12:04.223Z,12.50
2022-10-02T07:13:26.970Z,12.60
2022-10-02T07:14:53.453Z,12.80
2022-10-02T07:16:27.524Z,12.80
2022-10-02T07:17:46.286Z,12.90
2022-10-02T07:19:07.068Z,12.90
2022-10-02T07:20:29.544Z,12.80
2022-10-02T07:21:39.832Z,12.90
2022-10-02T07:23:07.808Z,13.10
2022-10-02T07:24:29.109Z,13.30
2022-10-02T07:25:51.891Z,13.40
2022-10-02T07:27:02.939Z,13.60
2022-10-02T07:28:13.589Z,13.70
2022-10-02T07:29:28.960Z,14.00
2022-10-02T07:30:39.895Z,14.30
2022-10-02T07:31:53.681Z,14.50
2022-10-02T07:33:07.741Z,14.80
2022-10-02T07:34:22.382Z,14.90
2022-10-02T07:35:46.173Z,15.00
2022-10-02T07:36:59.814Z,15.00
2022-10-02T07:38:43.557Z,14.90
2022-10-02T07:40:04.049Z,15.00
2022-10-02T07:41:28.732Z,15.20
2022-10-02T07:42:50.912Z,15.40
2022-10-02T07:44:02.092Z,15.70
2022-10-02T07:45:28.410Z,16.10
2022-10-02T07:46:39.277Z,16.20
2022-10-02T07:48:02.386Z,16.20
2022-10-02T07:49:27.577Z,16.20
2022-10-02T07:50:35.473Z,16.30
2022-10-02T07:51:48.154Z,16.60
2022-10-02T07:53:00.943Z,16.80
2022-10-02T07:54:15.553Z,17.10
2022-10-02T07:55:21.705Z,17.10
2022-10-02T07:56:24.562Z,17.00
2022-10-02T07:57:36.041Z,16.80
2022-10-02T07:58:43.787Z,16.70
2022-10-02T07:59:49.801Z,16.80
2022-10-02T08:01:01.539Z,16.80
2022-10-02T08:02:09.513Z,16.90
2022-10-02T08:03:16.642Z,17.20
2022-10-02T08:04:24.422Z,17.40
2022-10-02T08:05:31.275Z,17.30
2022-10-02T08:06:34.614Z,17.30
2022-10-02T08:07:37.920Z,17.40
2022-10-02T08:08:47.292Z,17.50
2022-10-02T08:09:55.417Z,17.60
2022-10-02T08:11:05.994Z,17.70
2022-10-02T08:12:15.348Z,17.70
2022-10-02T08:13:22.470Z,17.70
2022-10-02T08:14:29.086Z,17.80
2022-10-02T08:15:36.520Z,17.80
2022-10-02T08:16:42.959Z,17.90
2022-10-02T08:17:49.914Z,18.20
2022-10-02T08:18:57.939Z,18.30
2022-10-02T08:20:05.260Z,18.30
2022-10-02T08:21:14.387Z,18.00
2022-10-02T08:22:24.501Z,17.90
2022-10-02T08:23:31.383Z,17.70
2022-10-02T08:24:40.998Z,17.60
2022-10-02T08:25:53.436Z,17.30
2022-10-02T08:26:59.366Z,17.10
2022-10-02T08:28:07.116Z,16.80
2022-10-02T08:29:14.836Z,16.70
2022-10-02T08:30:18.402Z,16.60
2022-10-02T08:31:23.236Z,16.60
2022-10-02T08:32:34.591Z,16.50
2022-10-02T08:33:39.137Z,16.40
2022-10-02T08:34:43.553Z,16.40
2022-10-02T08:36:03.186Z,16.40
2022-10-02T08:37:29.770Z,16.50
2022-10-02T08:38:40.343Z,16.50
2022-10-02T08:39:57.773Z,16.40
2022-10-02T08:41:36.862Z,16.50
2022-10-02T08:43:08.333Z,16.40
2022-10-02T08:44:36.443Z,16.20
2022-10-02T08:46:27.155Z,16.10
2022-10-02T08:48:02.060Z,16.00
2022-10-02T08:49:23.391Z,16.20
2022-10-02T08:50:45.322Z,16.40
2022-10-02T08:52:25.435Z,16.50
2022-10-02T08:53:59.695Z,16.60
2022-10-02T08:55:35.671Z,16.60
2022-10-02T08:56:52.315Z,16.50
2022-10-02T08:58:27.313Z,16.40
2022-10-02T09:00:05.223Z,16.40
2022-10-02T09:01:21.713Z,16.40
2022-10-02T09:03:04.002Z,16.40
2022-10-02T09:04:41.678Z,16.50
2022-10-02T09:06:30.428Z,16.60
2022-10-02T09:08:19.607Z,16.60
2022-10-02T09:09:52.662Z,16.60
2022-10-02T09:11:38.405Z,16.60
2022-10-02T09:13:14.166Z,16.60
2022-10-02T09:14:47.187Z,16.60
2022-10-02T09:16:01.980Z,16.70
2022-10-02T09:17:18.994Z,16.70
2022-10-02T09:18:41.978Z,16.80
2022-10-02T09:20:06.691Z,16.80
2022-10-02T09:21:18.672Z,16.70
2022-10-02T09:22:48.076Z,16.70
2022-10-02T09:24:31.016Z,16.60
2022-10-02T09:25:39.005Z,16.60
2022-10-02T09:26:56.553Z,16.50
2022-10-02T09:28:25.253Z,16.50
2022-10-02T09:29:55.768Z,16.40
2022-10-02T09:31:30.459Z,16.40
2022-10-02T09:33:03.813Z,16.40
2022-10-02T09:34:42.073Z,16.30
2022-10-02T09:36:19.031Z,16.20
2022-10-02T09:37:50.425Z,16.20
2022-10-02T09:39:28.240Z,16.20
2022-10-02T09:41:01.347Z,16.30
2022-10-02T09:42:56.066Z,16.20
2022-10-02T09:44:29.154Z,16.20
2022-10-02T09:45:55.899Z,16.10
2022-10-02T09:47:37.739Z,16.10
2022-10-02T09:48:59.384Z,16.20
2022-10-02T09:50:44.885Z,16.20
2022-10-02T09:52:19.732Z,16.20
2022-10-02T09:53:53.959Z,16.20
2022-10-02T09:55:24.329Z,16.20
2022-10-02T09:57:18.082Z,16.20
2022-10-02T09:59:04.607Z,16.20
2022-10-02T10:00:18.340Z,16.20
2022-10-02T10:01:54.130Z,16.30
2022-10-02T10:03:27.570Z,16.20
2022-10-02T10:05:14.152Z,16.20
2022-10-02T10:06:47.559Z,16.20
2022-10-02T10:08:26.956Z,16.20
2022-10-02T10:10:12.664Z,16.30
2022-10-02T10:11:36.522Z,16.40
2022-10-02T10:13:22.436Z,16.60
2022-10-02T10:14:51.958Z,16.70
2022-10-02T10:16:38.339Z,16.90
2022-10-02T10:18:05.608Z,17.00
2022-10-02T10:19:34.141Z,17.10
2022-10-02T10:21:01.580Z,17.10
2022-10-02T10:22:43.665Z,17.00
2022-10-02T10:24:15.482Z,16.90
2022-10-02T10:25:51.390Z,16.60
2022-10-02T10:27:13.420Z,16.50
2022-10-02T10:28:38.615Z,16.30
2022-10-02T10:30:21.435Z,16.20
2022-10-02T10:31:58.644Z,16.10
2022-10-02T10:33:25.306Z,16.00
2022-10-02T10:35:09.836Z,15.90
2022-10-02T10:36:52.851Z,15.70
2022-10-02T10:38:17.436Z,15.60
2022-10-02T10:39:46.249Z,15.50
2022-10-02T10:41:37.581Z,15.30
2022-10-02T10:43:20.053Z,15.10
2022-10-02T10:44:51.247Z,14.90
2022-10-02T10:46:10.918Z,14.70
2022-10-02T10:47:43.750Z,14.60
2022-10-02T10:49:13.573Z,14.60
2022-10-02T10:50:40.495Z,14.60
2022-10-02T10:51:48.821Z,14.60
2022-10-02T10:53:17.450Z,14.60
2022-10-02T10:54:51.023Z,14.60
2022-10-02T10:56:19.366Z,14.70
2022-10-02T10:57:45.985Z,14.70
2022-10-02T10:59:07.952Z,14.60
2022-10-02T11:00:23.048Z,14.70
2022-10-02T11:01:38.581Z,14.80
2022-10-02T11:03:11.336Z,14.90
2022-10-02T11:04:40.752Z,14.90
2022-10-02T11:06:17.109Z,15.00
2022-10-02T11:07:45.382Z,15.10
2022-10-02T11:09:18.082Z,15.20
2022-10-02T11:10:32.017Z,15.30
2022-10-02T11:11:46.327Z,15.40
2022-10-02T11:13:29.734Z,15.40
2022-10-02T11:14:50.275Z,15.40
2022-10-02T11:16:13.270Z,15.50
2022-10-02T11:17:48.748Z,15.50
2022-10-02T11:19:21.527Z,15.60
2022-10-02T11:21:01.703Z,15.70
2022-10-02T11:22:38.147Z,15.80
2022-10-02T11:23:54.048Z,15.80
2022-10-02T11:25:22.949Z,15.80
2022-10-02T11:26:51.769Z,15.90
2022-10-02T11:28:22.209Z,15.90
2022-10-02T11:29:59.946Z,15.90
2022-10-02T11:31:22.948Z,15.90
2022-10-02T11:33:01.558Z,15.80
2022-10-02T11:34:33.598Z,15.80
2022-10-02T11:35:56.464Z,15.80
2022-10-02T11:37:15.420Z,15.70
2022-10-02T11:38:38.556Z,15.70
2022-10-02T11:40:09.317Z,15.70
2022-10-02T11:41:31.111Z,15.50
2022-10-02T11:42:49.493Z,15.50
2022-10-02T11:44:05.815Z,15.30
2022-10-02T11:45:31.080Z,15.20
2022-10-02T11:47:02.758Z,15.10
2022-10-02T11:48:24.297Z,15.10
2022-10-02T11:50:04.326Z,14.90
2022-10-02T11:51:34.373Z,14.80
2022-10-02T11:52:56.304Z,14.60
2022-10-02T11:54:45.515Z,14.40
2022-10-02T11:56:10.303Z,14.30
2022-10-02T11:57:23.621Z,14.20
2022-10-02T11:58:41.972Z,14.10
2022-10-02T12:00:10.303Z,14.10
2022-10-02T12:01:24.427Z,14.00
2022-10-02T12:02:36.083Z,13.90
2022-10-02T12:03:51.292Z,13.90
2022-10-02T12:05:11.314Z,13.90
2022-10-02T12:06:22.481Z,13.90
2022-10-02T12:07:37.308Z,13.90
2022-10-02T12:08:57.655Z,14.00
2022-10-02T12:10:18.077Z,14.00
2022-10-02T12:11:32.498Z,14.10
2022-10-02T12:12:51.650Z,14.10
2022-10-02T12:14:05.184Z,14.20
2022-10-02T12:15:23.039Z,14.10
2022-10-02T12:16:37.009Z,14.20
2022-10-02T12:17:53.362Z,14.30
2022-10-02T12:19:08.459Z,14.30
2022-10-02T12:20:41.148Z,14.40
2022-10-02T12:22:14.270Z,14.40
2022-10-02T12:23:47.469Z,14.50
2022-10-02T12:25:19.340Z,14.60
2022-10-02T12:26:53.003Z,14.70
2022-10-02T12:28:04.579Z,14.70
2022-10-02T12:29:13.365Z,14.70
2022-10-02T12:30:19.806Z,14.70
2022-10-02T12:31:30.043Z,14.80
2022-10-02T12:32:49.770Z,14.80
2022-10-02T12:33:59.861Z,14.80
2022-10-02T12:35:17.838Z,14.90
2022-10-02T12:36:34.486Z,14.90
2022-10-02T12:37:46.851Z,14.90
2022-10-02T12:39:01.006Z,14.90
2022-10-02T12:40:14.652Z,15.00
2022-10-02T12:41:34.038Z,15.10
2022-10-02T12:43:13.827Z,15.10
2022-10-02T12:44:44.804Z,15.10
2022-10-02T12:46:17.409Z,15.10
2022-10-02T12:47:53.317Z,15.20
2022-10-02T12:49:13.907Z,15.20
2022-10-02T12:50:24.779Z,15.30
2022-10-02T12:51:41.523Z,15.30
2022-10-02T12:53:23.122Z,15.40
2022-10-02T12:55:09.441Z,15.50
2022-10-02T12:56:42.170Z,15.60
2022-10-02T12:58:00.517Z,15.60
2022-10-02T12:59:13.732Z,15.60
2022-10-02T13:00:19.006Z,15.60
2022-10-02T13:01:55.243Z,15.60
2022-10-02T13:03:37.377Z,15.60
2022-10-02T13:05:23.188Z,15.70
2022-10-02T13:06:53.012Z,15.70
2022-10-02T13:08:16.812Z,15.80
2022-10-02T13:09:35.320Z,15.80
2022-10-02T13:10:43.814Z,15.80
2022-10-02T13:12:04.701Z,15.80
2022-10-02T13:13:25.040Z,15.80
2022-10-02T13:15:02.921Z,15.70
2022-10-02T13:16:14.037Z,15.60
2022-10-02T13:17:29.384Z,15.60
2022-10-02T13:18:52.793Z,15.50
2022-10-02T13:20:11.625Z,15.50
2022-10-02T13:21:20.270Z,15.40
2022-10-02T13:22:36.261Z,15.40
2022-10-02T13:23:50.185Z,15.50
2022-10-02T13:25:18.407Z,15.50
2022-10-02T13:26:32.286Z,15.50
2022-10-02T13:27:41.637Z,15.60
2022-10-02T13:29:02.233Z,15.60
2022-10-02T13:30:15.595Z,15.60
2022-10-02T13:31:29.017Z,15.70
2022-10-02T13:32:46.474Z,15.90
2022-10-02T13:34:05.439Z,16.00
2022-10-02T13:35:32.383Z,16.20
2022-10-02T13:36:52.574Z,16.40
2022-10-02T13:38:09.308Z,16.60
2022-10-02T13:39:27.931Z,16.70
2022-10-02T13:40:35.156Z,16.90
2022-10-02T13:41:56.136Z,16.90
2022-10-02T13:43:34.594Z,17.00
2022-10-02T13:44:45.871Z,17.10
2022-10-02T13:45:57.182Z,17.20
2022-10-02T13:47:31.693Z,17.20
2022-10-02T13:48:45.802Z,17.30
2022-10-02T13:50:03.259Z,17.30
2022-10-02T13:51:10.404Z,17.30
2022-10-02T13:52:24.464Z,17.20
2022-10-02T13:53:52.983Z,17.20
2022-10-02T13:55:13.766Z,17.20
2022-10-02T13:56:29.646Z,17.10
2022-10-02T13:57:48.712Z,17.00
2022-10-02T13:59:13.671Z,16.80
2022-10-02T14:00:40.949Z,16.70
2022-10-02T14:01:58.193Z,16.60
2022-10-02T14:03:12.488Z,16.50
2022-10-02T14:04:35.049Z,16.40
2022-10-02T14:05:44.469Z,16.20
2022-10-02T14:06:55.371Z,16.20
2022-10-02T14:08:18.404Z,16.10
2022-10-02T14:09:36.888Z,16.00
2022-10-02T14:10:53.041Z,16.00
2022-10-02T14:12:08.994Z,15.90
2022-10-02T14:13:28.763Z,15.90
2022-10-02T14:14:48.663Z,15.90
2022-10-02T14:16:03.246Z,15.90
2022-10-02T14:17:19.150Z,15.90
2022-10-02T14:18:38.904Z,15.90
2022-10-02T14:20:19.110Z,15.90
2022-10-02T14:21:31.081Z,15.90
2022-10-02T14:22:42.052Z,15.90
2022-10-02T14:24:20.795Z,15.90
2022-10-02T14:25:33.995Z,15.90
2022-10-02T14:26:51.902Z,15.90
2022-10-02T14:28:21.493Z,15.90
2022-10-02T14:29:47.242Z,15.90
2022-10-02T14:31:05.005Z,15.90
2022-10-02T14:32:33.149Z,15.90
2022-10-02T14:33:55.777Z,15.90
2022-10-02T14:35:41.923Z,15.90
2022-10-02T14:36:50.838Z,16.00
2022-10-02T14:38:18.899Z,16.00
2022-10-02T14:39:32.888Z,16.00
2022-10-02T14:40:46.352Z,16.00
2022-10-02T14:42:01.432Z,16.00
2022-10-02T14:43:25.391Z,15.90
2022-10-02T14:44:55.706Z,15.90
2022-10-02T14:46:03.847Z,15.80
2022-10-02T14:47:24.037Z,15.70
2022-10-02T14:48:40.761Z,15.70
2022-10-02T14:50:24.348Z,15.70
2022-10-02T14:52:05.314Z,15.70
2022-10-02T14:53:42.185Z,15.60
2022-10-02T14:55:03.132Z,15.60
2022-10-02T14:56:35.726Z,15.60
2022-10-02T14:58:02.312Z,15.50
2022-10-02T14:59:20.270Z,15.50
2022-10-02T15:00:25.004Z,15.50
2022-10-02T15:01:27.140Z,15.40
2022-10-02T15:03:01.081Z,15.40
2022-10-02T15:04:23.353Z,15.40
2022-10-02T15:05:46.428Z,15.30
2022-10-02T15:07:14.698Z,15.30
2022-10-02T15:08:22.134Z,15.30
2022-10-02T15:09:33.329Z,15.30
2022-10-02T15:10:41.993Z,15.30
2022-10-02T15:11:58.257Z,15.30
2022-10-02T15:13:09.858Z,15.20
2022-10-02T15:14:19.660Z,15.20
2022-10-02T15:15:29.077Z,15.20
2022-10-02T15:17:06.517Z,15.20
2022-10-02T15:18:22.126Z,15.20
2022-10-02T15:19:31.477Z,15.20
2022-10-02T15:20:41.277Z,15.10
2022-10-02T15:21:51.708Z,15.10
2022-10-02T15:22:58.565Z,15.10
2022-10-02T15:24:32.408Z,15.10
2022-10-02T15:25:50.148Z,15.10
2022-10-02T15:27:03.659Z,15.10
2022-10-02T15:28:34.994Z,15.10
2022-10-02T15:29:47.867Z,15.00
2022-10-02T15:30:57.001Z,14.90
2022-10-02T15:32:29.104Z,14.90
2022-10-02T15:33:40.289Z,14.90
2022-10-02T15:34:52.065Z,14.80
2022-10-02T15:36:09.741Z,14.80
2022-10-02T15:37:25.712Z,14.80
2022-10-02T15:39:00.791Z,14.90
2022-10-02T15:40:22.097Z,14.90
2022-10-02T15:41:44.433Z,14.80
2022-10-02T15:42:58.570Z,14.80
2022-10-02T15:44:09.590Z,14.80
2022-10-02T15:45:25.037Z,14.80
2022-10-02T15:46:33.530Z,14.80
2022-10-02T15:48:01.897Z,14.70
2022-10-02T15:49:12.592Z,14.70
2022-10-02T15:50:29.630Z,14.70
2022-10-02T15:51:45.441Z,14.70
2022-10-02T15:53:02.146Z,14.60
2022-10-02T15:54:17.364Z,14.60
2022-10-02T15:55:26.452Z,14.60
2022-10-02T15:57:03.531Z,14.50
2022-10-02T15:58:26.453Z,14.50
2022-10-02T15:59:51.418Z,14.50
2022-10-02T16:01:16.953Z,14.50
2022-10-02T16:02:41.558Z,14.40
2022-10-02T16:03:50.871Z,14.40
2022-10-02T16:05:08.422Z,14.40
2022-10-02T16:06:19.601Z,14.40
2022-10-02T16:07:40.326Z,14.40
2022-10-02T16:09:02.691Z,14.30
2022-10-02T16:10:21.246Z,14.30
2022-10-02T16:11:43.062Z,14.30
2022-10-02T16:13:06.408Z,14.30
2022-10-02T16:14:15.149Z,14.30
2022-10-02T16:15:23.783Z,14.20
2022-10-02T16:16:52.333Z,14.20
2022-10-02T16:18:16.066Z,14.20
2022-10-02T16:19:25.271Z,14.10
2022-10-02T16:21:01.731Z,14.10
2022-10-02T16:22:19.271Z,14.00
2022-10-02T16:23:47.280Z,14.00
2022-10-02T16:25:08.166Z,14.00
2022-10-02T16:26:28.820Z,13.90
2022-10-02T16:27:52.351Z,13.90
2022-10-02T16:29:12.985Z,13.80
2022-10-02T16:30:17.634Z,13.90
2022-10-02T16:31:45.563Z,13.80
2022-10-02T16:33:11.107Z,13.80
2022-10-02T16:34:24.082Z,13.70
2022-10-02T16:35:51.156Z,13.60